Time;durP1;ratioP1;P1;durP2;ratioP2;P2;SDS_P1;SDS_P2;PMS_P1;PMS_P2;Temp;Humidity;BMP_temperature;BMP_pressure;BME280_temperature;BME280_humidity;BME280_pressure;Samples;Min_cycle;Max_cycle;Signal;HPM_P1;HPM_P2
2021/01/16 00:00:54;;;;;;;4.67;4.10;;;;;;;-0.61;68.03;101768.22;5103089;28;20203;-75
2021/01/16 00:03:21;;;;;;;6.17;4.40;;;;;;;-0.67;67.97;101769.63;5101108;28;20195;-75
2021/01/16 00:05:48;;;;;;;4.57;4.17;;;;;;;-0.66;68.18;101768.78;5102599;28;20227;-76
2021/01/16 00:08:15;;;;;;;4.37;3.90;;;;;;;-0.60;67.73;101766.50;5104817;28;20226;-77
2021/01/16 00:10:44;;;;;;;4.80;4.40;;;;;;;-0.61;68.12;101765.66;5100071;28;20630;-76
2021/01/16 00:13:13;;;;;;;6.37;4.13;;;;;;;-0.57;67.54;101758.97;5103997;28;20564;-75
2021/01/16 00:15:40;;;;;;;4.37;4.00;;;;;;;-0.58;67.76;101758.91;5102029;28;20226;-76
2021/01/16 00:18:08;;;;;;;4.70;4.30;;;;;;;-0.55;67.60;101756.50;5106517;28;20202;-75
2021/01/16 00:20:36;;;;;;;5.43;4.17;;;;;;;-0.59;67.74;101760.59;5102692;28;20207;-75
2021/01/16 00:23:03;;;;;;;4.17;3.77;;;;;;;-0.57;67.24;101748.72;5099306;28;20260;-75
2021/01/16 00:25:29;;;;;;;5.00;4.60;;;;;;;-0.56;67.51;101753.03;5103555;28;20252;-75
2021/01/16 00:27:55;;;;;;;4.37;3.93;;;;;;;-0.51;67.88;101750.72;5109932;28;20849;-75
2021/01/16 00:30:24;;;;;;;4.77;4.37;;;;;;;-0.60;68.15;101751.13;5102580;28;20215;-76
2021/01/16 00:32:50;;;;;;;4.97;4.53;;;;;;;-0.59;68.39;101750.34;5106496;28;20196;-75
2021/01/16 00:35:19;;;;;;;6.17;4.27;;;;;;;-0.56;68.08;101744.47;5102679;28;20223;-76
2021/01/16 00:37:47;;;;;;;5.00;4.50;;;;;;;-0.55;67.35;101743.69;5104056;28;20269;-76
2021/01/16 00:40:15;;;;;;;6.23;4.57;;;;;;;-0.58;67.35;101746.09;5100916;28;20230;-76
2021/01/16 00:42:43;;;;;;;4.80;4.40;;;;;;;-0.54;67.49;101748.84;5087522;28;20601;-76
2021/01/16 00:45:10;;;;;;;5.13;4.67;;;;;;;-0.54;67.42;101743.72;5083356;28;20281;-75
2021/01/16 00:47:36;;;;;;;5.83;5.10;;;;;;;-0.53;67.44;101750.63;5086411;28;20200;-76
2021/01/16 00:52:57;;;;;;;4.83;4.33;;;;;;;-0.52;67.40;101744.69;5078738;28;20204;-75
2021/01/16 00:55:24;;;;;;;5.20;4.70;;;;;;;-0.67;67.13;101737.16;5093915;28;20227;-76
2021/01/16 00:57:50;;;;;;;5.13;4.60;;;;;;;-0.73;68.93;101734.28;5085797;28;20250;-75
2021/01/16 01:00:17;;;;;;;4.97;4.47;;;;;;;-0.77;69.40;101736.63;5094012;28;20223;-75
2021/01/16 01:02:45;;;;;;;5.87;5.37;;;;;;;-0.70;69.69;101733.56;5087413;28;20199;-75
2021/01/16 01:05:13;;;;;;;5.50;4.97;;;;;;;-0.64;69.80;101741.53;5103769;28;20813;-75
2021/01/16 01:07:39;;;;;;;5.20;4.70;;;;;;;-0.55;68.98;101733.41;5092682;28;20203;-76
2021/01/16 01:10:08;;;;;;;4.83;4.43;;;;;;;-0.69;67.67;101733.63;5092706;28;20287;-75
2021/01/16 01:12:33;;;;;;;5.70;5.20;;;;;;;-0.77;68.05;101736.63;5090455;28;20716;-75
2021/01/16 01:15:00;;;;;;;5.13;4.63;;;;;;;-0.83;67.13;101725.28;5092879;28;20220;-75
2021/01/16 01:17:25;;;;;;;5.43;5.03;;;;;;;-1.11;67.94;101734.97;5085408;28;20225;-76
2021/01/16 01:19:51;;;;;;;5.50;5.00;;;;;;;-0.99;68.79;101730.47;5093310;28;20700;-75
2021/01/16 01:22:17;;;;;;;5.23;4.83;;;;;;;-1.12;68.37;101740.91;5085417;28;20203;-75
2021/01/16 01:24:44;;;;;;;6.90;4.90;;;;;;;-1.52;69.74;101737.22;5093293;28;20753;-75
2021/01/16 01:27:11;;;;;;;10.63;5.30;;;;;;;-1.74;70.17;101732.69;5085588;28;20210;-75
2021/01/16 01:29:37;;;;;;;5.67;5.17;;;;;;;-1.81;71.10;101730.59;5094784;28;20252;-75
2021/01/16 01:32:03;;;;;;;6.37;5.73;;;;;;;-1.69;71.42;101735.47;5084628;28;20204;-75
2021/01/16 01:34:29;;;;;;;8.90;5.87;;;;;;;-1.77;72.29;101732.53;5092918;28;20230;-75
2021/01/16 01:36:55;;;;;;;6.97;5.10;;;;;;;-1.64;71.99;101736.59;5093684;28;20202;-75
2021/01/16 01:39:20;;;;;;;5.83;5.33;;;;;;;-2.02;72.79;101735.50;5093052;28;20302;-75
2021/01/16 01:41:46;;;;;;;6.33;5.80;;;;;;;-2.25;73.43;101736.81;5085930;28;20253;-77
2021/01/16 01:44:13;;;;;;;5.30;4.87;;;;;;;-2.05;72.43;101736.19;5092478;28;20302;-75
2021/01/16 01:46:39;;;;;;;3.67;3.37;;;;;;;-1.95;67.14;101734.13;5086715;28;20660;-76
2021/01/16 01:49:06;;;;;;;4.13;3.73;;;;;;;-1.78;66.80;101725.66;5092828;28;20202;-75
2021/01/16 01:51:33;;;;;;;4.10;3.70;;;;;;;-1.65;67.00;101717.78;5087220;28;20203;-75
2021/01/16 01:54:00;;;;;;;4.10;3.80;;;;;;;-1.75;66.70;101727.50;5090891;28;20212;-75
2021/01/16 01:56:27;;;;;;;3.60;3.30;;;;;;;-1.78;66.46;101724.75;5096709;28;20207;-74
2021/01/16 01:58:55;;;;;;;3.83;3.53;;;;;;;-1.73;65.64;101725.88;5076162;28;20631;-75
2021/01/16 02:01:22;;;;;;;3.67;3.37;;;;;;;-1.65;65.04;101725.47;5087842;28;20214;-75
2021/01/16 02:03:48;;;;;;;3.80;3.50;;;;;;;-1.58;66.13;101721.56;5089010;28;20218;-77
2021/01/16 02:06:15;;;;;;;4.00;3.70;;;;;;;-1.61;66.06;101716.28;5091377;28;20232;-77
2021/01/16 02:08:41;;;;;;;2.77;2.57;;;;;;;-1.73;65.12;101720.75;5092662;28;20206;-77
2021/01/16 02:11:07;;;;;;;4.03;3.73;;;;;;;-1.88;66.52;101719.19;5090317;28;20203;-77
2021/01/16 02:13:33;;;;;;;4.07;3.70;;;;;;;-1.90;66.26;101718.22;5097681;28;20203;-77
2021/01/16 02:16:04;;;;;;;3.50;3.20;;;;;;;-1.93;66.35;101723.16;5090809;28;20275;-77
2021/01/16 02:18:36;;;;;;;3.40;3.10;;;;;;;-1.91;66.01;101721.56;5086452;28;20234;-77
2021/01/16 02:21:04;;;;;;;3.60;3.30;;;;;;;-2.03;65.85;101719.25;5093932;28;20206;-77
2021/01/16 02:23:48;;;;;;;3.73;3.43;;;;;;;-1.91;66.84;101731.78;5092362;28;20554;-77
2021/01/16 02:26:57;;;;;;;4.00;3.70;;;;;;;-1.95;65.72;101724.75;5088443;28;20220;-76
2021/01/16 02:29:24;;;;;;;5.00;3.70;;;;;;;-1.96;66.95;101724.69;5077326;28;20217;-76
2021/01/16 02:31:56;;;;;;;4.10;3.70;;;;;;;-2.02;66.84;101722.69;5084556;28;20608;-77
2021/01/16 02:34:27;;;;;;;3.90;3.60;;;;;;;-2.13;67.08;101711.88;5074396;28;20234;-77
2021/01/16 02:37:30;;;;;;;3.70;3.40;;;;;;;-2.15;64.81;101715.16;5091250;28;20207;-77
2021/01/16 02:40:06;;;;;;;3.73;3.43;;;;;;;-2.03;66.77;101709.00;5091209;28;20323;-77
2021/01/16 02:42:42;;;;;;;4.10;3.80;;;;;;;-2.08;67.04;101715.56;5084041;28;20207;-75
2021/01/16 02:45:13;;;;;;;5.07;4.40;;;;;;;-1.99;67.23;101715.16;5095329;28;20227;-75
2021/01/16 02:47:55;;;;;;;4.03;3.63;;;;;;;-2.07;66.49;101709.66;5088413;28;20213;-75
2021/01/16 02:50:22;;;;;;;4.17;3.77;;;;;;;-1.96;67.14;101710.22;5096436;28;20199;-74
2021/01/16 02:52:50;;;;;;;4.10;3.70;;;;;;;-1.88;67.23;101715.75;5088343;28;20203;-74
2021/01/16 02:55:16;;;;;;;4.57;4.17;;;;;;;-1.80;67.83;101717.03;5095515;28;20223;-75
2021/01/16 02:57:43;;;;;;;4.10;3.70;;;;;;;-1.94;67.88;101707.72;5089725;28;20691;-75
2021/01/16 03:00:12;;;;;;;4.40;4.00;;;;;;;-2.01;67.92;101704.84;5095936;28;20235;-77
2021/01/16 03:02:38;;;;;;;4.37;3.97;;;;;;;-1.86;68.33;101714.16;5088123;28;20202;-75
2021/01/16 03:05:06;;;;;;;4.70;4.30;;;;;;;-1.80;67.04;101709.34;5095748;28;20228;-75
2021/01/16 03:07:32;;;;;;;4.13;3.73;;;;;;;-2.03;67.52;101698.78;5096382;28;20738;-75
2021/01/16 03:10:01;;;;;;;4.30;3.90;;;;;;;-2.04;68.21;101706.38;5095831;28;20573;-75
2021/01/16 03:12:28;;;;;;;4.23;3.83;;;;;;;-2.04;68.49;101702.16;5093312;28;20797;-75
2021/01/16 03:14:56;;;;;;;6.70;3.83;;;;;;;-1.92;68.51;101706.13;5095669;28;20219;-75
2021/01/16 03:17:29;;;;;;;7.50;4.37;;;;;;;-1.91;68.81;101700.22;5087987;28;20209;-75
2021/01/16 03:19:55;;;;;;;4.77;4.47;;;;;;;-1.88;68.87;101700.41;5095708;28;20226;-75
2021/01/16 03:22:23;;;;;;;5.23;4.83;;;;;;;-1.87;68.63;101699.56;5087773;28;20214;-75
2021/01/16 03:24:51;;;;;;;4.43;3.80;;;;;;;-1.84;69.13;101690.38;5095439;28;20230;-75
2021/01/16 03:27:19;;;;;;;4.17;3.77;;;;;;;-1.79;68.93;101690.63;5087558;28;20723;-75
2021/01/16 03:29:45;;;;;;;4.90;4.17;;;;;;;-1.67;69.02;101680.13;5097275;28;20203;-75
2021/01/16 03:32:12;;;;;;;4.20;3.80;;;;;;;-1.60;69.39;101677.09;5087786;28;20194;-75
2021/01/16 03:34:40;;;;;;;4.70;3.83;;;;;;;-1.44;69.14;101683.84;5095050;28;20225;-75
2021/01/16 03:37:06;;;;;;;4.43;4.03;;;;;;;-1.55;68.57;101679.88;5094284;28;20210;-76
2021/01/16 03:39:35;;;;;;;3.77;3.47;;;;;;;-1.76;69.63;101685.66;5094828;28;20237;-75
2021/01/16 03:42:02;;;;;;;4.40;4.00;;;;;;;-1.79;69.43;101690.63;5086684;28;20215;-76
2021/01/16 03:44:27;;;;;;;4.60;4.20;;;;;;;-1.94;70.24;101679.56;5095299;28;20227;-76
2021/01/16 03:46:54;;;;;;;4.60;4.20;;;;;;;-2.16;69.93;101675.03;5086350;28;20228;-75
2021/01/16 03:49:19;;;;;;;4.97;4.57;;;;;;;-2.06;69.91;101678.16;5094476;28;20203;-75
2021/01/16 03:51:46;;;;;;;4.83;3.73;;;;;;;-1.91;70.00;101677.19;5087271;28;20692;-75
2021/01/16 03:54:12;;;;;;;4.37;3.87;;;;;;;-1.80;69.24;101678.63;5093230;28;20231;-76
2021/01/16 03:56:38;;;;;;;4.73;4.33;;;;;;;-1.71;68.76;101671.41;5087475;28;20208;-76
2021/01/16 03:59:04;;;;;;;5.40;4.90;;;;;;;-1.58;69.19;101672.91;5093102;28;20249;-76
2021/01/16 04:01:32;;;;;;;6.07;4.37;;;;;;;-1.48;69.29;101672.56;5088911;28;20588;-76
2021/01/16 04:03:59;;;;;;;4.43;4.03;;;;;;;-1.38;69.30;101666.22;5092053;28;20206;-76
2021/01/16 04:06:24;;;;;;;4.70;4.20;;;;;;;-1.42;69.27;101670.31;5092539;28;20215;-76
2021/01/16 04:08:51;;;;;;;4.77;4.37;;;;;;;-1.51;69.99;101671.53;5094067;28;20946;-76
2021/01/16 04:11:17;;;;;;;4.70;4.30;;;;;;;-1.75;70.05;101661.81;5091487;28;20886;-75
2021/01/16 04:13:43;;;;;;;4.50;4.10;;;;;;;-1.87;70.78;101666.31;5099316;28;20203;-76
2021/01/16 04:16:09;;;;;;;4.70;4.20;;;;;;;-1.94;71.34;101666.78;5091080;28;20225;-76
2021/01/16 04:18:35;;;;;;;4.57;4.17;;;;;;;-1.82;71.29;101672.56;5088596;28;20203;-75
2021/01/16 04:21:02;;;;;;;4.93;4.53;;;;;;;-1.63;71.09;101666.69;5092225;28;20207;-75
2021/01/16 04:23:28;;;;;;;4.60;4.17;;;;;;;-1.45;71.45;101666.72;5087488;28;20228;-75
2021/01/16 04:25:54;;;;;;;5.23;4.73;;;;;;;-1.38;71.08;101666.22;5101043;28;20250;-76
2021/01/16 04:28:20;;;;;;;4.47;4.10;;;;;;;-1.26;70.90;101653.16;5094059;28;20673;-76
2021/01/16 04:30:46;;;;;;;4.33;3.90;;;;;;;-1.08;70.54;101663.41;5093611;28;20208;-75
2021/01/16 04:33:13;;;;;;;5.60;4.63;;;;;;;-0.98;70.23;101662.16;5085651;28;20249;-75
2021/01/16 04:35:38;;;;;;;4.67;4.27;;;;;;;-1.00;71.44;101651.81;5093113;28;20269;-76
2021/01/16 04:38:05;;;;;;;4.70;4.30;;;;;;;-1.00;70.00;101650.13;5094743;28;20210;-75
2021/01/16 04:40:31;;;;;;;4.80;4.40;;;;;;;-0.98;70.18;101659.59;5093232;28;20226;-76
2021/01/16 04:42:59;;;;;;;5.33;4.47;;;;;;;-1.08;69.38;101659.16;5085578;28;20204;-76
2021/01/16 04:45:26;;;;;;;5.03;4.63;;;;;;;-0.95;69.51;101658.06;5093106;28;20227;-76
2021/01/16 04:47:56;;;;;;;4.77;4.37;;;;;;;-0.96;69.43;101657.97;5085318;28;20206;-75
2021/01/16 04:50:26;;;;;;;4.90;4.33;;;;;;;-0.99;69.10;101648.47;5092944;28;20195;-76
2021/01/16 04:53:00;;;;;;;5.23;4.80;;;;;;;-1.01;68.77;101657.78;5085416;28;20603;-76
2021/01/16 04:55:27;;;;;;;5.33;4.77;;;;;;;-0.99;69.34;101648.47;5092679;28;20233;-76
2021/01/16 04:57:53;;;;;;;5.17;4.60;;;;;;;-1.00;69.82;101645.00;5085086;28;20741;-76
2021/01/16 05:00:22;;;;;;;5.07;4.63;;;;;;;-1.01;70.11;101642.41;5094770;28;20222;-76
2021/01/16 05:02:52;;;;;;;4.57;4.17;;;;;;;-0.89;69.87;101645.53;5097276;28;20207;-76
2021/01/16 05:05:18;;;;;;;4.83;4.43;;;;;;;-0.92;68.24;101641.94;5092639;28;20227;-75
2021/01/16 05:07:46;;;;;;;4.63;4.23;;;;;;;-0.87;67.98;101641.38;5091257;28;20203;-75
2021/01/16 05:10:12;;;;;;;5.37;4.77;;;;;;;-0.94;68.40;101631.63;5092594;28;20629;-75
2021/01/16 05:12:57;;;;;;;4.67;4.20;;;;;;;-0.91;69.63;101638.56;5090062;28;20208;-76
2021/01/16 05:15:29;;;;;;;5.37;4.87;;;;;;;-0.89;69.35;101640.41;5092323;28;20233;-76
2021/01/16 05:17:59;;;;;;;5.40;4.83;;;;;;;-0.85;69.49;101626.94;5084758;28;20220;-76
2021/01/16 05:20:25;;;;;;;4.27;3.97;;;;;;;-0.91;70.29;101631.78;5092637;28;20231;-76
2021/01/16 05:22:51;;;;;;;4.77;4.37;;;;;;;-0.82;69.79;101639.88;5084733;28;20203;-76
2021/01/16 05:25:17;;;;;;;5.10;4.70;;;;;;;-0.84;68.83;101631.22;5096481;28;20568;-76
2021/01/16 05:27:59;;;;;;;4.77;4.37;;;;;;;-0.80;68.88;101634.81;5085525;28;20677;-76
2021/01/16 05:30:27;;;;;;;4.50;4.10;;;;;;;-0.80;69.13;101624.56;5085383;28;20261;-76
2021/01/16 05:32:53;;;;;;;4.87;4.47;;;;;;;-0.77;69.89;101626.38;5084559;28;20677;-76
2021/01/16 05:35:21;;;;;;;4.67;4.27;;;;;;;-0.74;69.53;101619.72;5092046;28;20307;-76
2021/01/16 05:37:49;;;;;;;4.57;4.27;;;;;;;-0.80;69.83;101633.13;5091641;28;20636;-76
2021/01/16 05:40:16;;;;;;;4.93;4.43;;;;;;;-0.77;70.42;101623.81;5091924;28;20217;-76
2021/01/16 05:42:43;;;;;;;5.17;4.73;;;;;;;-0.84;69.72;101612.41;5084402;28;20207;-76
2021/01/16 05:45:11;;;;;;;5.00;4.20;;;;;;;-0.82;70.04;101618.50;5092048;28;20227;-76
2021/01/16 05:47:42;;;;;;;5.00;4.60;;;;;;;-0.78;69.59;101620.38;5084253;28;20250;-76
2021/01/16 05:50:10;;;;;;;5.50;5.00;;;;;;;-0.77;69.90;101614.47;5092202;28;20204;-75
2021/01/16 05:52:37;;;;;;;4.90;4.50;;;;;;;-0.73;69.45;101615.47;5084110;28;20199;-76
2021/01/16 05:55:05;;;;;;;5.20;4.70;;;;;;;-0.81;69.55;101600.63;5091346;28;20223;-76
2021/01/16 05:57:32;;;;;;;4.77;4.37;;;;;;;-0.86;71.18;101607.22;5083908;28;20199;-76
2021/01/16 05:59:59;;;;;;;4.93;4.53;;;;;;;-0.93;71.88;101606.84;5095478;28;20244;-75
2021/01/16 06:02:30;;;;;;;5.17;4.67;;;;;;;-0.77;70.54;101600.75;5087640;28;20200;-76
2021/01/16 06:04:57;;;;;;;5.03;4.53;;;;;;;-0.73;69.71;101594.97;5078668;28;20262;-76
2021/01/16 06:07:24;;;;;;;5.37;4.87;;;;;;;-0.71;69.63;101588.25;5091128;28;20331;-76
2021/01/16 06:09:50;;;;;;;4.70;4.30;;;;;;;-0.78;69.34;101592.19;5091456;28;20206;-76
2021/01/16 06:12:18;;;;;;;5.73;5.13;;;;;;;-0.80;69.36;101588.69;5083683;28;20688;-76
2021/01/16 06:14:45;;;;;;;5.13;4.70;;;;;;;-0.83;70.02;101583.44;5091551;28;20616;-76
2021/01/16 06:17:12;;;;;;;5.03;4.63;;;;;;;-0.86;70.51;101585.84;5083902;28;20241;-75
2021/01/16 06:19:42;;;;;;;5.03;4.53;;;;;;;-0.92;70.57;101583.88;5097743;28;20223;-76
2021/01/16 06:22:10;;;;;;;5.30;4.77;;;;;;;-0.91;70.89;101582.19;5083675;28;20244;-76
2021/01/16 06:24:37;;;;;;;5.83;5.33;;;;;;;-0.84;70.28;101586.78;5091272;28;20230;-76
2021/01/16 06:27:05;;;;;;;5.37;4.87;;;;;;;-1.01;69.77;101584.34;5083627;28;20208;-76
2021/01/16 06:29:33;;;;;;;5.80;5.17;;;;;;;-0.97;70.14;101587.94;5092459;28;20202;-76
2021/01/16 06:32:05;;;;;;;6.23;5.63;;;;;;;-1.03;71.52;101582.47;5083423;28;20580;-75
2021/01/16 06:34:32;;;;;;;6.03;5.53;;;;;;;-1.34;70.53;101572.50;5090980;28;20227;-75
2021/01/16 06:37:07;;;;;;;7.37;5.53;;;;;;;-1.28;70.84;101580.47;5090866;28;20210;-75
2021/01/16 06:39:39;;;;;;;6.13;5.53;;;;;;;-1.54;71.67;101572.41;5091910;28;20226;-76
2021/01/16 06:42:08;;;;;;;7.07;6.37;;;;;;;-1.55;71.57;101570.66;5100067;28;20203;-75
2021/01/16 06:44:34;;;;;;;7.77;6.83;;;;;;;-1.71;71.56;101568.16;5098492;28;20219;-75
2021/01/16 06:47:00;;;;;;;7.97;7.27;;;;;;;-1.73;71.68;101573.19;5099744;28;20311;-75
2021/01/16 06:49:27;;;;;;;6.90;6.30;;;;;;;-1.78;72.33;101573.75;5099562;28;20214;-76
2021/01/16 06:51:55;;;;;;;7.13;6.43;;;;;;;-1.86;72.78;101570.84;5099915;28;20570;-75
2021/01/16 06:54:22;;;;;;;7.43;6.73;;;;;;;-1.78;73.26;101576.31;5098908;28;20218;-76
2021/01/16 06:57:00;;;;;;;7.83;6.73;;;;;;;-1.74;72.86;101578.25;5099263;28;20207;-76
2021/01/16 06:59:27;;;;;;;7.57;6.87;;;;;;;-1.72;72.80;101582.63;5098679;28;20230;-75
2021/01/16 07:01:55;;;;;;;7.17;6.47;;;;;;;-1.75;73.29;101579.91;5099827;28;20206;-76
2021/01/16 07:04:23;;;;;;;8.50;7.67;;;;;;;-1.75;73.93;101574.78;5098957;28;20213;-75
2021/01/16 07:06:49;;;;;;;8.23;7.53;;;;;;;-1.88;73.83;101580.13;5099341;28;20214;-75
2021/01/16 07:09:18;;;;;;;7.90;7.20;;;;;;;-1.83;74.45;101584.66;5096254;28;20199;-75
2021/01/16 07:11:47;;;;;;;8.20;7.50;;;;;;;-1.88;74.82;101582.69;5101071;28;20200;-76
2021/01/16 07:14:14;;;;;;;11.77;7.17;;;;;;;-1.76;74.72;101582.38;5098201;28;20209;-75
2021/01/16 07:16:41;;;;;;;8.33;7.53;;;;;;;-1.80;74.42;101589.06;5098755;28;20198;-75
2021/01/16 07:19:07;;;;;;;7.60;6.90;;;;;;;-1.73;74.10;101586.00;5100127;28;20280;-75
2021/01/16 07:21:39;;;;;;;7.90;7.20;;;;;;;-1.62;74.66;101581.41;5098048;28;20263;-75
2021/01/16 07:24:07;;;;;;;7.97;7.27;;;;;;;-1.55;74.19;101574.91;5099828;28;20207;-76
2021/01/16 07:26:36;;;;;;;7.77;6.87;;;;;;;-1.50;74.39;101579.44;5097959;28;20210;-75
2021/01/16 07:29:05;;;;;;;8.00;7.20;;;;;;;-1.60;74.29;101572.13;5101046;28;20282;-76
2021/01/16 07:31:36;;;;;;;8.63;7.83;;;;;;;-1.57;74.98;101559.44;5100587;28;20198;-76
2021/01/16 07:34:03;;;;;;;7.93;7.13;;;;;;;-1.49;74.34;101563.25;5104195;28;20255;-75
2021/01/16 07:36:29;;;;;;;8.73;7.93;;;;;;;-1.48;74.20;101559.91;5101476;28;20213;-76
2021/01/16 07:38:56;;;;;;;8.63;7.83;;;;;;;-1.40;74.17;101563.72;5100608;28;20194;-76
2021/01/16 07:41:31;;;;;;;8.60;7.80;;;;;;;-1.26;73.85;101566.06;5101307;28;20203;-76
2021/01/16 07:44:06;;;;;;;8.63;7.83;;;;;;;-1.13;74.06;101558.16;5102350;28;20202;-75
2021/01/16 07:46:32;;;;;;;8.70;7.90;;;;;;;-1.04;73.72;101555.13;5101531;28;20202;-76
2021/01/16 07:49:00;;;;;;;8.93;8.10;;;;;;;-0.96;73.60;101556.34;5103851;28;20201;-76
2021/01/16 07:51:33;;;;;;;8.57;7.67;;;;;;;-0.89;73.27;101558.41;5101313;28;20207;-76
2021/01/16 07:54:04;;;;;;;9.80;8.90;;;;;;;-0.85;72.86;101557.72;5103617;28;20217;-76
2021/01/16 07:56:41;;;;;;;8.33;7.60;;;;;;;-0.72;72.49;101563.41;5101220;28;20699;-76
2021/01/16 07:59:14;;;;;;;8.40;7.20;;;;;;;-0.72;72.53;101561.72;5103292;28;20225;-76
2021/01/16 08:01:54;;;;;;;11.37;7.97;;;;;;;-0.72;73.25;101561.72;5102221;28;20203;-76
2021/01/16 08:04:25;;;;;;;8.67;7.70;;;;;;;-0.67;72.13;101554.25;5100744;28;20225;-76
2021/01/16 08:07:03;;;;;;;8.77;7.97;;;;;;;-0.65;71.03;101543.25;5099920;28;20204;-76
2021/01/16 08:09:54;;;;;;;8.07;7.37;;;;;;;-0.66;70.69;101548.28;5099108;28;20211;-76
2021/01/16 08:12:22;;;;;;;7.93;7.13;;;;;;;-0.74;70.63;101550.50;5103080;28;20211;-76
2021/01/16 08:14:49;;;;;;;7.47;6.77;;;;;;;-0.71;69.83;101545.53;5102318;28;20579;-76
2021/01/16 08:17:18;;;;;;;8.33;7.53;;;;;;;-0.72;69.53;101554.00;5102973;28;20194;-76
2021/01/16 08:20:27;;;;;;;9.50;8.60;;;;;;;-0.74;70.47;101553.06;5097158;28;20756;-76
2021/01/16 08:22:56;;;;;;;12.43;10.10;;;;;;;-0.74;70.24;101550.50;5062112;28;20199;-76
2021/01/16 08:25:23;;;;;;;10.70;9.70;;;;;;;-0.73;70.32;101548.81;5083841;28;20770;-75
2021/01/16 08:27:51;;;;;;;9.00;8.20;;;;;;;-0.64;69.98;101554.38;5088375;28;20702;-75
2021/01/16 08:30:20;;;;;;;9.63;8.73;;;;;;;-0.60;70.37;101554.56;5104993;28;20258;-75
2021/01/16 08:32:53;;;;;;;10.63;9.07;;;;;;;-0.64;71.32;101544.97;5106200;28;20200;-74
2021/01/16 08:35:26;;;;;;;9.10;8.30;;;;;;;-0.64;71.40;101547.53;5097519;28;20249;-75
2021/01/16 08:37:52;;;;;;;9.50;8.47;;;;;;;-0.57;70.45;101540.16;5092401;28;20877;-75
2021/01/16 08:40:36;;;;;;;10.13;9.23;;;;;;;-0.65;71.49;101535.53;5092917;28;20227;-75
2021/01/16 08:43:02;;;;;;;9.93;8.97;;;;;;;-0.64;71.82;101532.16;5090710;28;20196;-77
2021/01/16 08:45:28;;;;;;;9.40;8.40;;;;;;;-0.62;71.83;101524.53;5092447;28;20232;-74
2021/01/16 08:47:55;;;;;;;9.37;8.57;;;;;;;-0.55;70.66;101525.72;5084940;28;20227;-74
2021/01/16 08:50:22;;;;;;;8.90;8.13;;;;;;;-0.51;70.62;101519.91;5092842;28;20210;-74
2021/01/16 08:52:49;;;;;;;11.60;10.40;;;;;;;-0.55;70.86;101523.16;5085344;28;20604;-74
2021/01/16 08:55:15;;;;;;;12.90;11.50;;;;;;;-0.65;69.41;101517.59;5092552;28;20219;-74
2021/01/16 08:57:41;;;;;;;15.57;11.80;;;;;;;-0.58;69.79;101521.28;5084984;28;20207;-74
2021/01/16 09:00:19;;;;;;;9.67;8.77;;;;;;;-0.60;69.80;101507.53;5092544;28;20239;-74
2021/01/16 09:03:05;;;;;;;23.93;11.57;;;;;;;-0.50;70.04;101513.94;5086131;28;20207;-74
2021/01/16 09:05:32;;;;;;;14.27;11.13;;;;;;;-0.56;69.33;101503.41;5084568;28;20219;-74
2021/01/16 09:07:59;;;;;;;10.50;9.47;;;;;;;-0.56;69.99;101508.56;5092119;28;20620;-74
2021/01/16 09:10:27;;;;;;;11.80;8.93;;;;;;;-0.54;69.77;101505.22;5092573;28;20668;-74
2021/01/16 09:12:53;;;;;;;9.00;8.10;;;;;;;-0.73;70.32;101505.22;5084821;28;20254;-74
2021/01/16 09:15:22;;;;;;;9.97;9.07;;;;;;;-1.01;70.00;101504.91;5092372;28;20232;-74
2021/01/16 09:18:05;;;;;;;9.87;8.03;;;;;;;-0.95;69.65;101501.75;5085623;28;20257;-74
2021/01/16 09:20:33;;;;;;;8.73;7.90;;;;;;;-0.79;69.64;101500.75;5084720;28;20223;-76
2021/01/16 09:23:23;;;;;;;8.73;7.70;;;;;;;-0.80;68.21;101504.09;5084758;28;20204;-74
2021/01/16 09:25:51;;;;;;;9.43;8.53;;;;;;;-0.79;68.81;101490.47;5092189;28;20304;-74
2021/01/16 09:28:17;;;;;;;9.70;8.80;;;;;;;-0.82;69.40;101501.47;5081489;28;20216;-77
2021/01/16 09:30:43;;;;;;;10.77;9.07;;;;;;;-0.96;69.99;101494.84;5093644;28;20207;-79
2021/01/16 09:33:23;;;;;;;9.33;8.43;;;;;;;-0.83;72.77;101496.28;5084866;28;20676;-77
2021/01/16 09:35:49;;;;;;;9.33;8.43;;;;;;;-1.00;71.65;101504.06;5092493;28;20227;-79
2021/01/16 09:38:18;;;;;;;11.53;10.40;;;;;;;-1.28;72.04;101499.38;5094728;28;20214;-78
2021/01/16 09:40:45;;;;;;;12.73;11.63;;;;;;;-1.44;72.69;101502.03;5094254;28;20230;-79
2021/01/16 09:43:15;;;;;;;11.70;10.50;;;;;;;-1.34;73.27;101500.78;5086310;28;20203;-78
2021/01/16 09:45:52;;;;;;;11.43;10.33;;;;;;;-1.24;74.30;101502.97;5094061;28;20223;-78
2021/01/16 09:48:40;;;;;;;14.00;12.03;;;;;;;-1.36;75.59;101507.53;5087013;28;20209;-81
2021/01/16 09:51:07;;;;;;;10.80;9.73;;;;;;;-1.58;75.19;101500.53;5092791;28;20207;-74
2021/01/16 09:53:34;;;;;;;11.50;10.40;;;;;;;-1.55;76.15;101505.78;5091619;28;20268;-74
2021/01/16 09:56:01;;;;;;;15.60;10.40;;;;;;;-1.37;75.67;101498.94;5091085;28;20223;-75
2021/01/16 09:58:31;;;;;;;11.93;10.77;;;;;;;-1.31;75.30;101496.69;5079134;28;20208;-74
2021/01/16 10:01:16;;;;;;;11.70;10.50;;;;;;;-1.19;75.89;101496.34;5086659;28;20227;-74
2021/01/16 10:03:43;;;;;;;11.47;10.40;;;;;;;-1.23;75.27;101495.38;5087722;28;20619;-75
2021/01/16 10:06:11;;;;;;;10.30;9.30;;;;;;;-1.00;75.24;101495.53;5090329;28;20724;-75
2021/01/16 10:08:39;;;;;;;12.73;10.47;;;;;;;-1.02;75.17;101490.31;5092281;28;20199;-74
2021/01/16 10:11:05;;;;;;;11.97;10.87;;;;;;;-1.23;74.89;101494.47;5089406;28;20215;-74
2021/01/16 10:13:33;;;;;;;11.20;10.20;;;;;;;-1.08;75.29;101489.19;5086130;28;20211;-75
2021/01/16 10:16:00;;;;;;;12.10;10.77;;;;;;;-0.87;75.10;101479.03;5090231;28;20220;-74
2021/01/16 10:18:28;;;;;;;12.33;11.13;;;;;;;-0.65;75.16;101479.13;5085323;28;20280;-74
2021/01/16 10:21:02;;;;;;;11.97;10.87;;;;;;;-0.49;74.63;101483.25;5091165;28;20254;-75
2021/01/16 10:23:30;;;;;;;12.60;11.50;;;;;;;-0.43;73.75;101472.38;5093369;28;20202;-75
2021/01/16 10:26:02;;;;;;;12.13;11.03;;;;;;;-0.64;74.21;101468.06;5090113;28;20235;-75
2021/01/16 10:28:29;;;;;;;15.27;11.90;;;;;;;-0.74;74.50;101470.16;5084904;28;20218;-76
2021/01/16 10:30:58;;;;;;;12.60;11.50;;;;;;;-0.71;74.58;101468.63;5091021;28;20210;-75
2021/01/16 10:33:24;;;;;;;12.50;11.20;;;;;;;-0.82;73.83;101454.44;5097591;28;20673;-76
2021/01/16 10:36:02;;;;;;;13.30;12.00;;;;;;;-0.93;74.14;101459.13;5099810;28;20231;-76
2021/01/16 10:38:43;;;;;;;11.97;10.77;;;;;;;-0.83;74.26;101448.47;5099892;28;20202;-76
2021/01/16 10:41:10;;;;;;;12.60;11.37;;;;;;;-0.67;73.15;101444.00;5097534;28;20230;-75
2021/01/16 10:43:36;;;;;;;12.00;10.80;;;;;;;-0.87;73.84;101446.56;5102541;28;20252;-76
2021/01/16 10:46:09;;;;;;;10.57;9.47;;;;;;;-1.04;70.73;101435.56;5098626;28;20223;-76
2021/01/16 10:48:41;;;;;;;10.13;8.93;;;;;;;-1.06;71.75;101424.38;5101903;28;20205;-76
2021/01/16 10:51:09;;;;;;;9.73;8.83;;;;;;;-0.80;72.00;101427.19;5092975;28;20206;-76
2021/01/16 10:53:37;;;;;;;8.10;7.37;;;;;;;-0.81;69.87;101423.75;5093464;28;20217;-76
2021/01/16 10:56:15;;;;;;;8.53;7.83;;;;;;;-0.82;69.85;101416.88;5099216;28;20280;-75
2021/01/16 10:58:44;;;;;;;9.07;8.17;;;;;;;-0.83;69.06;101406.59;5091902;28;20423;-77
2021/01/16 11:01:12;;;;;;;8.83;8.03;;;;;;;-0.98;69.44;101406.78;5090421;28;20224;-75
2021/01/16 11:03:38;;;;;;;8.30;7.50;;;;;;;-0.83;70.39;101410.00;5092034;28;20206;-76
2021/01/16 11:06:05;;;;;;;10.13;9.23;;;;;;;-0.66;69.93;101405.59;5093378;28;20587;-76
2021/01/16 11:08:33;;;;;;;10.83;9.77;;;;;;;-0.74;69.90;101399.25;5097272;28;20214;-76
2021/01/16 11:11:00;;;;;;;12.23;10.13;;;;;;;-0.79;71.51;101393.09;5101785;28;20192;-75
2021/01/16 11:13:28;;;;;;;12.23;11.03;;;;;;;-0.74;72.17;101383.88;5102821;27;20209;-76
2021/01/16 11:15:56;;;;;;;11.20;10.10;;;;;;;-0.57;72.27;101381.16;5094100;28;20227;-76
2021/01/16 11:18:30;;;;;;;10.90;9.90;;;;;;;-0.32;72.27;101380.47;5087518;28;20203;-76
2021/01/16 11:21:07;;;;;;;11.17;10.07;;;;;;;-0.08;71.67;101372.88;5094210;28;20276;-76
2021/01/16 11:24:13;;;;;;;12.60;11.40;;;;;;;-0.26;71.70;101373.91;5089276;28;20609;-76
2021/01/16 11:26:47;;;;;;;17.10;12.80;;;;;;;-0.25;72.00;101372.22;5093417;28;20704;-76
2021/01/16 11:29:19;;;;;;;12.80;11.60;;;;;;;-0.06;71.74;101373.78;5101625;28;20239;-76
2021/01/16 11:31:50;;;;;;;11.00;10.00;;;;;;;0.17;71.50;101362.72;5095751;28;20231;-76
2021/01/16 11:34:25;;;;;;;13.83;12.43;;;;;;;0.07;70.23;101360.63;5094105;28;20223;-76